Time;durP1;ratioP1;P1;durP2;ratioP2;P2;SDS_P1;SDS_P2;PMS_P1;PMS_P2;Temp;Humidity;BMP_temperature;BMP_pressure;BME280_temperature;BME280_humidity;BME280_pressure;Samples;Min_cycle;Max_cycle;Signal;HPM_P1;HPM_P2
2023/10/28 06:10:48;;;;;;;;;;;13.30;74.50;;;12.64;67.67;95388.53;4317941;32;20059;-90
2023/10/28 06:13:17;;;;;;;;;;;13.50;74.30;;;12.69;67.49;95392.00;5095498;28;35183;-87
2023/10/28 06:15:45;;;;;;;;;;;13.60;74.20;;;12.72;67.13;95391.41;5093363;28;19924;-86
2023/10/28 06:18:13;;;;;;;;;;;13.60;73.60;;;12.76;66.58;95390.78;5077109;28;19935;-86
2023/10/28 06:20:40;;;;;;;;;;;13.60;73.10;;;12.78;66.81;95397.59;5061113;28;19925;-86
2023/10/28 06:23:07;;;;;;;;;;;13.70;73.50;;;12.79;66.54;95399.22;5043862;28;19932;-86
2023/10/28 06:25:35;;;;;;;;;;;13.70;73.20;;;12.83;66.33;95413.16;4930873;29;19928;-87
2023/10/28 06:28:06;;;;;;;;;;;13.70;73.10;;;12.85;66.32;95411.72;4701507;29;2181736;-87
2023/10/28 06:30:34;;;;;;;;;;;13.70;72.90;;;12.89;66.00;95412.75;4742299;29;19931;-87
2023/10/28 06:33:02;;;;;;;;;;;13.70;72.90;;;12.91;66.17;95422.63;4683641;30;19932;-86
2023/10/28 06:35:30;;;;;;;;;;;13.80;72.80;;;12.89;66.31;95418.25;4670728;30;19932;-86
2023/10/28 06:37:59;;;;;;;;;;;13.80;72.90;;;12.87;66.31;95415.00;4671277;30;19932;-86
2023/10/28 06:40:28;;;;;;;;;;;13.70;72.70;;;12.83;65.82;95419.50;4683809;30;19932;-86
2023/10/28 06:42:57;;;;;;;;;;;13.70;72.20;;;12.81;66.37;95418.16;4683464;30;19955;-86
2023/10/28 06:45:28;;;;;;;;;;;13.70;72.70;;;12.76;66.47;95429.25;4683554;30;20439;-86
2023/10/28 06:47:56;;;;;;;;;;;13.70;72.80;;;12.72;66.66;95429.00;4683286;30;19941;-86
2023/10/28 06:50:25;;;;;;;;;;;13.60;73.00;;;12.69;66.62;95418.66;4683568;30;19932;-86
2023/10/28 06:52:53;;;;;;;;;;;13.60;73.30;;;12.70;67.49;95429.31;4683470;30;19932;-87
2023/10/28 06:55:22;;;;;;;;;;;13.60;74.00;;;12.73;66.92;95431.47;4683613;30;19935;-87
2023/10/28 06:57:50;;;;;;;;;;;13.60;73.50;;;12.76;66.68;95441.03;4682835;30;19932;-87
2023/10/28 07:00:18;;;;;;;;;;;13.60;73.40;;;12.81;66.79;95446.44;4682370;30;19932;-87
2023/10/28 07:02:48;;;;;;;;;;;13.70;73.60;;;12.81;66.08;95432.72;4683550;30;19938;-87
2023/10/28 07:05:16;;;;;;;;;;;13.70;72.70;;;12.83;66.84;95435.97;4668535;30;19932;-87
2023/10/28 07:07:45;;;;;;;;;;;13.70;73.50;;;12.87;66.77;95439.72;4682996;30;19932;-86
2023/10/28 07:10:14;;;;;;;;;;;13.70;73.50;;;12.93;66.72;95436.88;4678647;30;19932;-87
2023/10/28 07:12:42;;;;;;;;;;;13.70;73.50;;;12.99;67.21;95439.22;4671560;30;19932;-87
2023/10/28 07:15:11;;;;;;;;;;;13.80;74.10;;;13.07;67.29;95434.13;4671481;30;19932;-87
2023/10/28 07:17:40;;;;;;;;;;;13.90;74.40;;;13.12;66.54;95432.09;4671427;30;19939;-86
2023/10/28 07:20:10;;;;;;;;;;;13.90;73.80;;;13.19;66.63;95438.00;4671371;30;19932;-87
2023/10/28 07:22:38;;;;;;;;;;;14.00;73.60;;;13.24;66.49;95439.81;4675832;30;19932;-87
2023/10/28 07:25:07;;;;;;;;;;;14.00;73.20;;;13.30;66.38;95440.53;4688406;30;20418;-87
2023/10/28 07:27:35;;;;;;;;;;;14.10;73.20;;;13.35;65.82;95449.50;4708039;30;20402;-87
2023/10/28 07:30:03;;;;;;;;;;;14.10;72.60;;;13.39;66.05;95457.94;4736546;30;19938;-86
2023/10/28 07:32:32;;;;;;;;;;;14.20;72.80;;;13.44;66.09;95457.03;4770997;30;19938;-87
2023/10/28 07:35:00;;;;;;;;;;;14.20;73.00;;;13.49;66.09;95465.97;4758406;30;20326;-86
2023/10/28 07:37:29;;;;;;;;;;;14.20;72.90;;;13.50;65.79;95467.63;4773109;30;19930;-86
2023/10/28 07:39:57;;;;;;;;;;;14.30;73.00;;;13.54;65.82;95464.25;4772950;30;19930;-86
2023/10/28 07:42:26;;;;;;;;;;;14.30;72.70;;;13.56;65.72;95468.31;4758377;30;19930;-87
2023/10/28 07:44:55;;;;;;;;;;;14.30;72.70;;;13.58;65.69;95468.03;4758134;30;19930;-87
2023/10/28 07:47:23;;;;;;;;;;;14.30;72.50;;;13.60;65.69;95476.78;4758205;30;19937;-87
2023/10/28 07:49:51;;;;;;;;;;;14.30;72.60;;;13.63;65.33;95479.72;4758655;30;19938;-87
2023/10/28 07:52:19;;;;;;;;;;;14.40;72.40;;;13.63;65.63;95490.72;4758000;30;20389;-87
2023/10/28 07:54:49;;;;;;;;;;;14.40;72.30;;;13.64;65.53;95486.88;4773164;30;19990;-87
2023/10/28 07:57:17;;;;;;;;;;;14.40;72.30;;;13.67;65.64;95488.19;4757848;30;20313;-87
2023/10/28 07:59:45;;;;;;;;;;;14.40;72.40;;;13.68;65.37;95491.75;4772532;30;19930;-87
2023/10/28 08:02:13;;;;;;;;;;;14.50;72.30;;;13.70;65.44;95494.97;4743097;30;19941;-87
2023/10/28 08:04:41;;;;;;;;;;;14.50;72.40;;;13.70;65.43;95500.50;4757810;30;19938;-87
2023/10/28 08:07:09;;;;;;;;;;;14.50;72.30;;;13.69;65.57;95496.94;4758721;29;19930;-87
2023/10/28 08:09:37;;;;;;;;;;;14.50;72.40;;;13.67;65.26;95499.19;4771980;30;19930;-87
2023/10/28 08:12:07;;;;;;;;;;;14.50;72.20;;;13.60;65.33;95502.34;4742975;30;19931;-87
2023/10/28 08:14:36;;;;;;;;;;;14.40;71.80;;;13.54;65.54;95511.00;4742797;30;19930;-87
2023/10/28 08:17:05;;;;;;;;;;;14.40;72.00;;;13.48;65.65;95515.78;4757612;30;19937;-87
2023/10/28 08:19:33;;;;;;;;;;;14.30;71.90;;;13.40;65.95;95514.56;4757097;30;19934;-87
2023/10/28 08:22:01;;;;;;;;;;;14.30;72.20;;;13.34;66.12;95513.84;4756150;30;19930;-86
2023/10/28 08:40:16;;;;;;;;;;;14.10;72.50;;;12.99;67.32;95543.63;4319144;32;20012;-89
2023/10/28 08:43:03;;;;;;;;;;;13.90;74.00;;;12.98;67.54;95557.66;4366639;32;19916;-87
2023/10/28 08:45:32;;;;;;;;;;;13.90;74.20;;;12.98;67.59;95552.16;5113559;28;33304;-87
2023/10/28 08:48:00;;;;;;;;;;;13.90;74.30;;;12.98;67.46;95563.16;5080991;28;19935;-87
2023/10/28 08:50:28;;;;;;;;;;;13.90;74.40;;;12.95;67.63;95558.28;5097120;28;19939;-87
2023/10/28 08:52:58;;;;;;;;;;;13.80;74.10;;;12.95;67.67;95563.78;5114576;28;19931;-87
2023/10/28 08:55:26;;;;;;;;;;;13.90;74.40;;;12.93;67.93;95560.50;5080872;28;19924;-87
2023/10/28 08:57:54;;;;;;;;;;;13.80;74.30;;;12.89;67.68;95563.84;5094240;28;19932;-87
2023/10/28 09:00:25;;;;;;;;;;;13.80;74.20;;;12.89;67.73;95565.78;5094026;28;19928;-87
2023/10/28 09:02:53;;;;;;;;;;;13.80;74.40;;;12.92;67.60;95564.38;5060344;28;19931;-87
2023/10/28 09:05:21;;;;;;;;;;;13.80;74.30;;;12.93;67.68;95555.00;5094010;28;19930;-87
2023/10/28 09:07:49;;;;;;;;;;;13.80;74.30;;;12.93;67.31;95557.75;5060285;28;19924;-87
2023/10/28 09:10:18;;;;;;;;;;;13.80;74.20;;;12.92;67.31;95565.16;5060275;28;19933;-87
2023/10/28 09:12:46;;;;;;;;;;;13.80;74.10;;;12.91;67.48;95557.25;5093897;28;20335;-87
2023/10/28 09:15:14;;;;;;;;;;;13.80;74.30;;;12.91;67.54;95565.47;5076818;28;19924;-87
2023/10/28 09:17:43;;;;;;;;;;;13.80;74.30;;;12.94;67.69;95559.38;5077060;28;20388;-87
2023/10/28 09:20:11;;;;;;;;;;;13.80;74.40;;;12.96;67.49;95566.22;5076744;28;19928;-87
2023/10/28 09:22:42;;;;;;;;;;;13.80;74.30;;;12.98;67.49;95563.16;5059891;28;19932;-87
2023/10/28 09:25:10;;;;;;;;;;;13.80;74.30;;;12.96;67.33;95566.22;5060356;28;19925;-87
2023/10/28 09:27:38;;;;;;;;;;;13.90;74.20;;;12.96;67.67;95568.16;5059860;28;19931;-87
2023/10/28 09:30:07;;;;;;;;;;;13.80;74.20;;;12.94;67.60;95564.88;5076547;28;20416;-87
2023/10/28 09:32:37;;;;;;;;;;;13.80;74.10;;;12.92;67.70;95569.88;5059942;28;20400;-87
2023/10/28 09:35:09;;;;;;;;;;;13.90;74.30;;;12.90;67.71;95564.69;5076721;28;19932;-87
2023/10/28 09:37:37;;;;;;;;;;;13.80;74.30;;;12.88;67.84;95570.47;5059925;28;19925;-87
2023/10/28 09:40:06;;;;;;;;;;;13.80;74.30;;;12.88;67.88;95569.66;5076406;28;19932;-87
2023/10/28 09:42:35;;;;;;;;;;;13.80;74.40;;;12.87;67.59;95573.50;5087782;28;19931;-86
2023/10/28 09:45:05;;;;;;;;;;;13.80;74.40;;;12.88;67.91;95567.72;5079665;28;19924;-87
2023/10/28 09:47:42;;;;;;;;;;;13.80;74.40;;;12.89;67.62;95566.59;5096696;28;20277;-87
2023/10/28 09:50:14;;;;;;;;;;;13.80;74.30;;;12.91;67.11;95557.25;5096252;28;19924;-87
2023/10/28 09:52:43;;;;;;;;;;;13.80;74.00;;;12.94;67.24;95557.44;5075265;28;19931;-87
2023/10/28 09:55:13;;;;;;;;;;;13.80;74.00;;;12.96;67.13;95548.91;5066127;28;19931;-87
2023/10/28 09:57:42;;;;;;;;;;;13.80;73.80;;;12.97;67.24;95545.06;5066136;28;19947;-86
2023/10/28 10:00:13;;;;;;;;;;;13.90;73.80;;;12.97;67.11;95539.56;5065929;28;19931;-87
2023/10/28 10:02:44;;;;;;;;;;;13.90;73.90;;;12.95;67.08;95548.09;5082842;28;20327;-87
2023/10/28 10:05:17;;;;;;;;;;;13.90;73.80;;;12.94;67.21;95553.91;5066048;28;19928;-87
2023/10/28 10:07:45;;;;;;;;;;;13.90;73.90;;;12.93;67.21;95550.31;5082911;28;20308;-87
2023/10/28 10:10:16;;;;;;;;;;;13.80;73.80;;;12.89;67.58;95558.34;5082311;28;19924;-87
2023/10/28 10:12:45;;;;;;;;;;;13.80;74.00;;;12.87;67.64;95559.78;5099207;28;20392;-87
2023/10/28 10:15:14;;;;;;;;;;;13.80;74.10;;;12.85;67.66;95546.31;5065778;28;19931;-86
2023/10/28 10:17:46;;;;;;;;;;;13.70;74.10;;;12.83;67.70;95545.84;5065761;28;19935;-87
2023/10/28 10:20:24;;;;;;;;;;;13.80;74.10;;;12.83;67.65;95556.00;5065892;28;20414;-87
2023/10/28 10:23:00;;;;;;;;;;;13.70;74.20;;;12.82;67.75;95555.19;5049202;28;19928;-87
2023/10/28 10:25:32;;;;;;;;;;;13.70;74.20;;;12.82;67.64;95555.19;5065771;28;19924;-87
2023/10/28 10:28:11;;;;;;;;;;;13.80;74.30;;;12.82;67.69;95555.19;5065604;28;19924;-87
2023/10/28 10:30:39;;;;;;;;;;;13.70;74.30;;;12.84;67.55;95555.72;5065332;28;19947;-87
2023/10/28 10:33:07;;;;;;;;;;;13.70;74.30;;;12.87;67.77;95563.34;5065814;28;19924;-86
2023/10/28 10:35:37;;;;;;;;;;;13.70;74.30;;;12.88;67.54;95569.66;5065526;28;19924;-87
2023/10/28 10:38:05;;;;;;;;;;;13.80;74.10;;;12.89;67.72;95563.84;5082497;28;19924;-87
2023/10/28 10:40:35;;;;;;;;;;;13.80;74.20;;;12.89;67.58;95569.34;5081867;28;19930;-87
2023/10/28 10:43:07;;;;;;;;;;;13.80;74.10;;;12.92;67.47;95576.16;5082425;28;19928;-87
2023/10/28 10:45:35;;;;;;;;;;;13.80;74.00;;;12.92;67.53;95580.84;5082224;28;19932;-87
2023/10/28 10:48:04;;;;;;;;;;;13.80;73.90;;;12.91;67.13;95574.53;5065635;28;19924;-87
2023/10/28 10:50:32;;;;;;;;;;;13.80;73.80;;;12.88;67.25;95570.47;5065329;28;20288;-87
2023/10/28 10:53:03;;;;;;;;;;;13.80;73.80;;;12.89;67.37;95571.28;5083375;28;19924;-87
2023/10/28 10:55:31;;;;;;;;;;;13.80;73.80;;;12.88;67.51;95578.69;5065294;28;19924;-87
2023/10/28 10:58:00;;;;;;;;;;;13.80;73.90;;;12.88;67.38;95575.94;5081963;28;20303;-87
2023/10/28 11:00:28;;;;;;;;;;;13.80;73.90;;;12.86;67.54;95567.19;5081717;28;20396;-87
2023/10/28 11:02:58;;;;;;;;;;;13.80;74.00;;;12.87;67.26;95560.59;5081965;28;19929;-87
2023/10/28 11:05:29;;;;;;;;;;;13.80;74.00;;;12.87;67.47;95557.84;5064422;28;19931;-87
2023/10/28 11:07:57;;;;;;;;;;;13.80;73.90;;;12.87;67.45;95549.59;5082298;28;19924;-87
2023/10/28 11:10:27;;;;;;;;;;;13.80;73.80;;;12.87;67.17;95552.34;5097985;28;19924;-86
2023/10/28 11:12:55;;;;;;;;;;;13.80;73.80;;;12.86;67.35;95541.66;5081854;28;20407;-86
2023/10/28 11:15:23;;;;;;;;;;;13.80;73.70;;;12.86;67.14;95547.97;5065182;28;19928;-86
2023/10/28 11:17:51;;;;;;;;;;;13.80;73.80;;;12.85;67.38;95560.06;5081614;28;19924;-86
2023/10/28 11:20:20;;;;;;;;;;;13.80;73.80;;;12.83;67.45;95567.81;5081658;28;19931;-86
2023/10/28 11:22:48;;;;;;;;;;;13.80;73.80;;;12.84;67.51;95571.38;5048594;28;19924;-86
2023/10/28 11:25:17;;;;;;;;;;;13.70;73.90;;;12.81;67.22;95564.53;5048439;28;19925;-87
2023/10/28 11:27:51;;;;;;;;;;;13.70;74.00;;;12.81;67.56;95564.53;5064784;28;20308;-87
2023/10/28 11:30:20;;;;;;;;;;;13.80;74.10;;;12.80;67.44;95549.19;5081316;28;19932;-87
2023/10/28 11:32:51;;;;;;;;;;;13.70;74.00;;;12.78;67.47;95554.16;5064701;28;19931;-87
2023/10/28 11:35:19;;;;;;;;;;;13.70;74.00;;;12.78;67.45;95548.66;5081196;28;19932;-86
2023/10/28 11:37:47;;;;;;;;;;;13.70;74.00;;;12.78;67.60;95548.66;5081270;28;20380;-87
2023/10/28 11:40:17;;;;;;;;;;;13.70;74.00;;;12.78;67.41;95542.38;5081224;28;19924;-86
2023/10/28 11:42:46;;;;;;;;;;;13.70;74.00;;;12.76;67.28;95530.88;5080779;28;19924;-86
2023/10/28 11:45:15;;;;;;;;;;;13.70;74.00;;;12.76;67.53;95528.91;5082675;28;20388;-86
2023/10/28 11:47:43;;;;;;;;;;;13.70;74.10;;;12.76;67.43;95534.41;5064575;28;19928;-87
2023/10/28 11:50:11;;;;;;;;;;;13.70;74.00;;;12.77;67.42;95530.56;5081182;28;19931;-87
2023/10/28 11:52:41;;;;;;;;;;;13.70;74.00;;;12.76;67.49;95533.59;5064492;28;19939;-87
2023/10/28 11:55:09;;;;;;;;;;;13.70;74.00;;;12.75;67.44;95530.03;5081153;28;19925;-86
2023/10/28 11:57:38;;;;;;;;;;;13.70;74.00;;;12.75;67.46;95538.28;5081167;28;19924;-86
2023/10/28 12:00:11;;;;;;;;;;;13.70;73.90;;;12.73;67.55;95533.09;5080867;28;20332;-86
2023/10/28 12:02:39;;;;;;;;;;;13.70;74.80;;;12.73;67.38;95524.03;5064072;28;19924;-87
2023/10/28 12:05:07;;;;;;;;;;;13.70;73.90;;;12.72;67.46;95528.72;5080896;28;19924;-87
2023/10/28 12:07:36;;;;;;;;;;;13.70;74.00;;;12.73;67.38;95529.50;5081315;28;19932;-86
2023/10/28 12:10:06;;;;;;;;;;;13.70;73.90;;;12.72;67.47;95527.88;5047669;28;19931;-87
2023/10/28 12:12:35;;;;;;;;;;;13.70;74.00;;;12.72;67.58;95530.63;5081310;28;19928;-87
2023/10/28 12:15:03;;;;;;;;;;;13.60;73.90;;;12.71;67.36;95531.78;5080749;28;20384;-87
2023/10/28 12:17:33;;;;;;;;;;;13.60;73.90;;;12.70;67.53;95533.69;5080357;28;19924;-86
2023/10/28 12:20:02;;;;;;;;;;;13.60;74.00;;;12.71;67.33;95518.03;5016574;28;19925;-86
2023/10/28 12:22:30;;;;;;;;;;;13.60;74.00;;;12.69;67.43;95518.31;5060518;28;19931;-86
2023/10/28 12:24:59;;;;;;;;;;;13.60;73.90;;;12.69;67.57;95525.75;5060486;28;20411;-87
2023/10/28 12:27:27;;;;;;;;;;;13.60;73.90;;;12.66;67.44;95518.91;5044241;28;19925;-86
2023/10/28 12:29:55;;;;;;;;;;;13.60;73.90;;;12.68;67.53;95515.88;5061807;28;19931;-86
2023/10/28 12:32:23;;;;;;;;;;;13.60;73.90;;;12.66;67.55;95518.13;5043683;28;19925;-86
2023/10/28 12:34:54;;;;;;;;;;;13.60;74.00;;;12.66;67.61;95523.59;5060273;28;19931;-86
2023/10/28 12:37:22;;;;;;;;;;;13.60;74.00;;;12.65;67.41;95528.25;5044238;28;20308;-87
2023/10/28 12:39:50;;;;;;;;;;;13.60;74.00;;;12.64;67.78;95528.59;4949118;28;19932;-87
2023/10/28 12:43:48;;;;;;;;;;;13.60;74.00;;;12.64;67.55;95531.31;4366550;32;19905;-87
2023/10/28 12:46:16;;;;;;;;;;;13.50;74.00;;;12.62;67.72;95531.63;5095993;28;35178;-87
2023/10/28 12:48:45;;;;;;;;;;;13.60;74.20;;;12.64;67.74;95528.59;5080521;28;19924;-87
2023/10/28 12:51:40;;;;;;;;;;;13.50;74.20;;;12.63;67.72;95518.72;4354709;32;19905;-86
2023/10/28 12:54:08;;;;;;;;;;;13.50;74.20;;;12.63;67.88;95529.69;5077421;28;34595;-87
2023/10/28 12:56:36;;;;;;;;;;;13.60;74.20;;;12.62;67.51;95528.06;5111335;28;19931;-87
2023/10/28 12:59:04;;;;;;;;;;;13.50;74.20;;;12.63;67.71;95526.94;5094008;28;20394;-87
2023/10/28 13:01:32;;;;;;;;;;;13.50;74.20;;;12.61;67.89;95526.44;5094255;28;19931;-87
2023/10/28 13:04:01;;;;;;;;;;;13.60;74.30;;;12.62;67.74;95537.13;5077251;28;20034;-87
2023/10/28 13:06:29;;;;;;;;;;;13.50;74.20;;;12.61;67.93;95543.72;5077301;28;20404;-87
2023/10/28 13:08:58;;;;;;;;;;;13.50;75.30;;;12.61;67.76;95551.13;5061429;28;19924;-87
2023/10/28 13:11:27;;;;;;;;;;;13.60;74.40;;;12.61;67.90;95559.38;5074239;28;20315;-87
2023/10/28 13:13:55;;;;;;;;;;;13.50;74.30;;;12.60;67.82;95561.31;5040281;28;19932;-87
2023/10/28 13:16:23;;;;;;;;;;;13.50;74.40;;;12.59;67.79;95551.44;5056871;28;19932;-87
2023/10/28 13:18:52;;;;;;;;;;;13.50;74.40;;;12.60;67.79;95547.59;5040053;28;19932;-87
2023/10/28 13:21:20;;;;;;;;;;;13.50;74.30;;;12.60;67.72;95550.34;5056778;28;20301;-87
2023/10/28 13:23:49;;;;;;;;;;;13.50;74.40;;;12.59;67.92;95563.22;5040079;28;19931;-87
2023/10/28 13:26:19;;;;;;;;;;;13.50;74.50;;;12.59;67.98;95563.22;5056574;28;19924;-88
2023/10/28 13:28:49;;;;;;;;;;;13.50;74.50;;;12.59;67.83;95568.72;5056951;28;19925;-87
2023/10/28 13:31:17;;;;;;;;;;;13.60;74.50;;;12.60;67.89;95566.81;5073258;28;19925;-87
2023/10/28 13:33:45;;;;;;;;;;;13.50;74.40;;;12.58;67.72;95564.38;5056890;28;19925;-88
2023/10/28 13:36:13;;;;;;;;;;;13.50;74.30;;;12.58;67.85;95561.63;5056550;28;19932;-87
2023/10/28 13:38:41;;;;;;;;;;;13.50;74.30;;;12.58;67.88;95560.81;5039535;28;19932;-87
2023/10/28 13:41:09;;;;;;;;;;;13.50;74.50;;;12.56;67.80;95561.13;5040056;28;19936;-87
2023/10/28 13:43:39;;;;;;;;;;;13.50;74.40;;;12.57;68.15;95556.41;5055999;28;19931;-87
2023/10/28 13:46:08;;;;;;;;;;;13.50;74.50;;;12.58;68.13;95558.06;5039669;28;19924;-87
2023/10/28 13:48:36;;;;;;;;;;;13.50;74.60;;;12.55;68.05;95556.72;5057289;28;19925;-87
2023/10/28 13:51:04;;;;;;;;;;;13.50;74.50;;;12.56;68.10;95560.28;5039366;28;20301;-87
2023/10/28 13:53:32;;;;;;;;;;;13.50;74.60;;;12.54;68.01;95552.34;5056318;28;20289;-87
2023/10/28 13:56:00;;;;;;;;;;;13.50;74.60;;;12.54;68.12;95554.25;5039609;28;19924;-87
2023/10/28 13:58:29;;;;;;;;;;;13.50;74.70;;;12.55;68.25;95558.66;5072856;28;20308;-88
2023/10/28 14:01:06;;;;;;;;;;;13.50;74.70;;;12.55;67.95;95550.41;5053883;28;19932;-87
2023/10/28 14:03:34;;;;;;;;;;;13.50;74.60;;;12.54;67.98;95548.78;5042938;28;19924;-87
2023/10/28 14:06:04;;;;;;;;;;;13.40;74.60;;;12.53;68.02;95553.47;5059328;28;19932;-87
2023/10/28 14:08:32;;;;;;;;;;;13.40;74.70;;;12.54;67.97;95554.25;5026704;28;19925;-87
2023/10/28 14:11:00;;;;;;;;;;;13.40;74.70;;;12.52;68.05;95545.53;5042523;28;19936;-87
2023/10/28 14:13:30;;;;;;;;;;;13.50;74.80;;;12.52;68.03;95551.03;5026281;28;19925;-87
2023/10/28 14:16:02;;;;;;;;;;;13.40;74.70;;;12.52;68.22;95556.53;5026053;28;19925;-87
2023/10/28 14:18:32;;;;;;;;;;;13.40;74.80;;;12.50;68.45;95553.25;5042554;28;19925;-88
2023/10/28 14:21:00;;;;;;;;;;;13.40;74.80;;;12.49;68.32;95557.91;5042405;28;19929;-87
2023/10/28 14:23:28;;;;;;;;;;;13.40;74.90;;;12.49;68.34;95557.91;5042556;28;19932;-87
2023/10/28 14:25:57;;;;;;;;;;;13.40;74.90;;;12.48;68.39;95561.78;5059311;28;19931;-87
2023/10/28 14:28:25;;;;;;;;;;;13.40;75.00;;;12.47;68.36;95565.63;5043598;28;19925;-87
2023/10/28 14:30:53;;;;;;;;;;;13.40;75.00;;;12.47;68.38;95573.88;5025306;28;19948;-87
2023/10/28 14:33:21;;;;;;;;;;;13.40;75.10;;;12.47;68.46;95582.09;5026445;28;19925;-87
2023/10/28 14:35:51;;;;;;;;;;;13.40;75.10;;;12.46;68.25;95572.22;5058862;28;19925;-87
2023/10/28 14:38:20;;;;;;;;;;;13.40;75.00;;;12.46;68.59;95571.44;5059011;28;20393;-87
2023/10/28 14:40:49;;;;;;;;;;;13.40;75.10;;;12.45;68.37;95567.88;5025515;28;19932;-87
2023/10/28 14:43:16;;;;;;;;;;;13.40;75.20;;;12.44;68.60;95574.47;5025680;28;19925;-87
2023/10/28 14:45:45;;;;;;;;;;;13.40;75.20;;;12.45;68.23;95578.84;5058674;28;19932;-87
2023/10/28 14:48:13;;;;;;;;;;;13.40;75.20;;;12.45;68.59;95583.53;5041865;28;19932;-86
2023/10/28 14:50:46;;;;;;;;;;;13.40;75.20;;;12.43;68.45;95592.88;5055045;28;19935;-86
2023/10/28 14:53:16;;;;;;;;;;;13.40;75.20;;;12.43;68.63;95592.06;5078412;28;19925;-86
2023/10/28 14:55:44;;;;;;;;;;;13.40;75.20;;;12.43;68.47;95600.31;5061895;28;19924;-86
2023/10/28 14:58:12;;;;;;;;;;;13.30;75.30;;;12.41;68.71;95600.56;5060041;28;20327;-86
2023/10/28 15:00:41;;;;;;;;;;;13.30;75.20;;;12.42;68.43;95607.69;5064794;28;19937;-86
2023/10/28 15:03:09;;;;;;;;;;;13.40;75.20;;;12.41;68.60;95613.50;5081555;28;19931;-86
2023/10/28 15:05:40;;;;;;;;;;;13.30;75.40;;;12.41;68.73;95621.75;5064870;28;20384;-86
2023/10/28 15:08:10;;;;;;;;;;;13.30;75.40;;;12.41;68.69;95621.75;5081395;28;19924;-86
2023/10/28 15:10:40;;;;;;;;;;;13.30;75.40;;;12.39;67.41;95619.28;5047859;28;19924;-87
2023/10/28 15:13:09;;;;;;;;;;;13.30;74.00;;;12.40;67.48;95625.59;5063834;28;19924;-87
2023/10/28 15:15:37;;;;;;;;;;;13.30;74.20;;;12.40;67.73;95631.88;5081864;28;19924;-87
2023/10/28 15:18:06;;;;;;;;;;;13.30;74.50;;;12.40;67.61;95631.09;5064689;28;19931;-86
2023/10/28 15:20:34;;;;;;;;;;;13.30;74.40;;;12.38;67.79;95623.16;5081159;28;19925;-86
2023/10/28 15:23:03;;;;;;;;;;;13.30;74.30;;;12.39;67.00;95618.47;5081555;28;20419;-86
2023/10/28 15:25:33;;;;;;;;;;;13.30;73.50;;;12.37;66.90;95628.91;5064669;28;19928;-86
2023/10/28 15:28:03;;;;;;;;;;;13.30;73.50;;;12.38;66.78;95628.66;5081507;28;19924;-86
2023/10/28 15:30:33;;;;;;;;;;;13.30;73.40;;;12.37;67.16;95628.91;5064145;28;19924;-86
2023/10/28 15:33:01;;;;;;;;;;;13.30;73.80;;;12.36;67.57;95636.34;5081281;28;19924;-86
2023/10/28 15:35:32;;;;;;;;;;;13.30;74.20;;;12.35;67.41;95637.47;5064592;28;19924;-86
2023/10/28 15:38:00;;;;;;;;;;;13.30;74.10;;;12.36;66.96;95632.78;5064530;28;20308;-86
2023/10/28 15:40:28;;;;;;;;;;;13.30;73.60;;;12.34;66.86;95638.56;5064154;28;20426;-86
2023/10/28 15:42:56;;;;;;;;;;;13.20;73.40;;;12.33;67.01;95641.63;5064485;28;19931;-86
2023/10/28 15:45:26;;;;;;;;;;;13.30;73.50;;;12.33;67.11;95644.38;5081845;28;19924;-86
2023/10/28 15:47:54;;;;;;;;;;;13.20;73.60;;;12.30;67.18;95645.75;5080997;28;19925;-86
2023/10/28 15:50:22;;;;;;;;;;;13.20;73.90;;;12.30;67.41;95659.47;5063752;28;20089;-86
2023/10/28 15:52:50;;;;;;;;;;;13.20;74.00;;;12.31;67.25;95668.53;5080812;28;19947;-86
2023/10/28 15:55:18;;;;;;;;;;;13.20;74.00;;;12.28;67.53;95668.00;5064499;28;20384;-86
2023/10/28 15:57:47;;;;;;;;;;;13.20;74.10;;;12.30;67.07;95666.91;5080949;28;19924;-86
2023/10/28 16:00:15;;;;;;;;;;;13.20;73.70;;;12.30;66.90;95664.97;5063771;28;19924;-86
2023/10/28 16:02:45;;;;;;;;;;;13.20;73.60;;;12.30;67.57;95664.16;5080857;28;19924;-86
2023/10/28 16:05:13;;;;;;;;;;;13.20;74.00;;;12.28;67.58;95668.00;5047490;28;20417;-86
2023/10/28 16:07:41;;;;;;;;;;;13.20;75.10;;;12.27;67.20;95677.34;5080813;28;19924;-86
2023/10/28 16:10:10;;;;;;;;;;;13.20;73.90;;;12.28;67.47;95675.41;5063528;28;19924;-86
2023/10/28 16:12:38;;;;;;;;;;;13.20;74.10;;;12.27;67.74;95684.75;5063858;28;19931;-86
2023/10/28 16:15:09;;;;;;;;;;;13.20;74.20;;;12.25;67.41;95674.09;5040887;28;19924;-86
2023/10/28 16:17:38;;;;;;;;;;;13.20;74.00;;;12.26;67.72;95675.72;5049932;28;19924;-86
2023/10/28 16:20:09;;;;;;;;;;;13.20;74.40;;;12.25;67.67;95685.06;5080287;28;19931;-86
2023/10/28 16:22:37;;;;;;;;;;;13.20;74.30;;;12.25;67.83;95698.78;5063737;28;19975;-86
2023/10/28 16:25:07;;;;;;;;;;;13.20;74.30;;;12.25;67.55;95696.03;5063525;28;19924;-86
2023/10/28 16:27:35;;;;;;;;;;;13.20;74.40;;;12.24;67.99;95701.84;5064000;28;19931;-86
2023/10/28 16:30:04;;;;;;;;;;;13.10;75.30;;;12.23;68.01;95709.25;5080382;28;19935;-86
2023/10/28 16:32:34;;;;;;;;;;;13.20;74.50;;;12.25;68.01;95695.25;5063554;28;19924;-86
2023/10/28 16:35:03;;;;;;;;;;;13.20;74.50;;;12.24;68.03;95716.38;5080460;28;19924;-86
2023/10/28 16:37:33;;;;;;;;;;;13.20;74.70;;;12.24;68.10;95721.03;5080402;28;19924;-86
2023/10/28 16:40:01;;;;;;;;;;;13.20;74.70;;;12.23;67.86;95731.19;5063196;28;20396;-86
2023/10/28 16:42:29;;;;;;;;;;;13.10;74.60;;;12.23;67.90;95730.38;5063517;28;19924;-86
2023/10/28 16:44:59;;;;;;;;;;;13.10;74.50;;;12.20;67.95;95729.03;5063204;28;19932;-86
2023/10/28 16:47:27;;;;;;;;;;;13.10;74.60;;;12.19;67.97;95741.13;5063426;28;19924;-86
2023/10/28 16:49:56;;;;;;;;;;;13.10;74.70;;;12.17;67.96;95740.63;5079524;28;19924;-86
2023/10/28 16:52:24;;;;;;;;;;;13.10;74.50;;;12.15;68.28;95740.06;5079962;28;19925;-86
2023/10/28 16:54:54;;;;;;;;;;;13.10;74.80;;;12.14;68.43;95735.69;5080062;28;19925;-86
2023/10/28 16:57:22;;;;;;;;;;;13.10;75.10;;;12.13;68.28;95732.13;5079674;28;19925;-86
2023/10/28 16:59:50;;;;;;;;;;;13.10;75.10;;;12.14;68.52;95738.44;5079645;28;19925;-86
2023/10/28 17:02:18;;;;;;;;;;;13.10;75.30;;;12.13;68.43;95736.81;5063086;28;19924;-86
2023/10/28 17:04:47;;;;;;;;;;;13.10;75.10;;;12.13;68.67;95742.28;5097143;28;19924;-86
2023/10/28 17:07:15;;;;;;;;;;;13.10;75.10;;;12.14;67.96;95743.94;5080197;28;19931;-86
2023/10/28 17:09:43;;;;;;;;;;;13.10;75.10;;;12.13;68.44;95747.78;5062721;28;19931;-86
2023/10/28 17:12:15;;;;;;;;;;;13.10;75.20;;;12.14;68.45;95743.94;5063012;28;19924;-86
2023/10/28 17:14:44;;;;;;;;;;;13.10;75.20;;;12.15;68.24;95737.34;5063114;28;19924;-86
2023/10/28 17:17:12;;;;;;;;;;;13.10;75.00;;;12.11;68.61;95733.53;5063201;28;19924;-86
2023/10/28 17:19:40;;;;;;;;;;;13.10;75.10;;;12.13;68.60;95737.59;5079035;28;19924;-86
2023/10/28 17:22:08;;;;;;;;;;;13.10;75.20;;;12.13;68.29;95747.78;5079647;28;20304;-86
2023/10/28 17:24:39;;;;;;;;;;;13.10;75.30;;;12.16;68.20;95754.59;5079709;28;19924;-86
2023/10/28 17:27:07;;;;;;;;;;;13.10;75.30;;;12.16;68.63;95762.84;5062995;28;20303;-86
2023/10/28 17:29:36;;;;;;;;;;;13.10;75.30;;;12.16;68.29;95760.09;5079358;28;20392;-86
2023/10/28 17:32:06;;;;;;;;;;;13.10;75.20;;;12.16;68.47;95758.19;5062636;28;19928;-86
2023/10/28 17:34:35;;;;;;;;;;;13.10;75.20;;;12.16;68.44;95766.41;5095692;28;20311;-86
2023/10/28 17:37:03;;;;;;;;;;;13.10;75.20;;;12.17;68.45;95768.06;5082166;28;19924;-86
2023/10/28 17:39:31;;;;;;;;;;;13.10;75.20;;;12.17;68.43;95769.97;5099222;28;19931;-86
2023/10/28 17:42:01;;;;;;;;;;;13.10;75.20;;;12.15;68.32;95770.25;5066231;28;19931;-86
2023/10/28 17:44:29;;;;;;;;;;;13.10;75.20;;;12.15;68.52;95769.44;5082855;28;19924;-86
2023/10/28 17:46:58;;;;;;;;;;;13.10;75.20;;;12.15;68.46;95781.25;5099166;28;19924;-86
2023/10/28 17:49:26;;;;;;;;;;;13.10;75.20;;;12.15;68.59;95788.63;5099552;28;19935;-86
2023/10/28 17:51:57;;;;;;;;;;;13.10;75.30;;;12.13;68.69;95780.72;5066308;28;20335;-86